»·PEaware :: N670MA KPSP-KLAS

N670MA :: KPSP-KLAS

FLIGHT INFORMATION

Flight Status: Arrived
Operator: Privately registered:
United States
More flights under this callsign
Pilot: Victor C. (32144)
Aircraft: PIPER PA-44 SEMINOLE
(PA44)
More flights by this aircraft type
Origin: KPSP Palm Springs Intl
United States
Destination: KLAS McCarran Intl
United States
More flights between these airports :: More routes between these airports
Route:
File this flight plan on PilotEdge
Remarks:
Altitude:
(Current/Filed)
7,500ft
Speed:
(Current/Filed)
150kts
Departed: 15-Jan-21 01:45 PM
Arrived: 15-Jan-21 03:02 PM
Distance/Time
Traveled:
150nm/1:17
Distance/Time
To Go:
Arrived

Flight Plot

Page will automatically refresh every two minutes.

Flight plan parsing failed; only flown route is shown


Map Options




Map Legend


Flown Route
Filed Route
Departure Airport
Arrival Airport
Navaid (VOR, NDB)
Fix

Horizontal Profiles

Position Reports

Time Latitude Longitude Heading Altitude Ground
Speed
15-Jan-21 13:27 33.826540 -116.509614 0 434ft 0kts
15-Jan-21 13:28 33.826540 -116.509614 0 434ft 0kts
15-Jan-21 13:29 33.826540 -116.509614 0 434ft 0kts
15-Jan-21 13:30 33.826540 -116.509614 0 434ft 0kts
15-Jan-21 13:31 33.826540 -116.509614 0 434ft 0kts
15-Jan-21 13:32 33.826540 -116.509614 0 434ft 0kts
15-Jan-21 13:33 33.826540 -116.509614 0 434ft 0kts
15-Jan-21 13:34 33.827805 -116.509260 3 438ft 8kts
15-Jan-21 13:35 33.826994 -116.507295 144 433ft 18kts
15-Jan-21 13:36 33.821740 -116.502652 143 412ft 22kts
15-Jan-21 13:37 33.818038 -116.499416 76 400ft 0kts
15-Jan-21 13:38 33.818081 -116.499362 18 400ft 0kts
15-Jan-21 13:39 33.818081 -116.499362 18 400ft 0kts
15-Jan-21 13:40 33.818112 -116.499350 18 400ft 3kts
15-Jan-21 13:41 33.818527 -116.498879 89 401ft 0kts
15-Jan-21 13:42 33.818527 -116.498879 89 401ft 0kts
15-Jan-21 13:43 33.819113 -116.498283 340 400ft 13kts
15-Jan-21 13:44 33.840141 -116.511105 354 1574ft 115kts
15-Jan-21 13:45 33.870174 -116.497007 32 3613ft 126kts
15-Jan-21 13:46 33.902259 -116.464132 33 4352ft 163kts
15-Jan-21 13:47 33.939933 -116.436162 32 5579ft 150kts
15-Jan-21 13:48 33.975771 -116.418941 23 7157ft 127kts
15-Jan-21 13:49 34.010351 -116.405128 22 7539ft 134kts
15-Jan-21 13:50 34.044963 -116.388329 22 7493ft 134kts
15-Jan-21 13:51 34.080085 -116.371096 22 7552ft 136kts
15-Jan-21 13:52 34.115128 -116.353930 22 7569ft 136kts
15-Jan-21 13:53 34.150515 -116.337383 4 7565ft 137kts
15-Jan-21 13:54 34.182306 -116.363859 322 7555ft 142kts
15-Jan-21 13:55 34.212837 -116.392908 3 7549ft 137kts
15-Jan-21 13:56 34.244351 -116.369638 41 7552ft 136kts
15-Jan-21 13:57 34.278331 -116.350102 22 7563ft 136kts
15-Jan-21 13:59 34.313334 -116.332596 22 7563ft 136kts
15-Jan-21 14:00 34.348736 -116.316550 23 7571ft 138kts
15-Jan-21 14:01 34.387155 -116.301878 22 7557ft 151kts
15-Jan-21 14:02 34.428922 -116.286037 13 7558ft 161kts
15-Jan-21 14:03 34.471928 -116.271725 12 7549ft 157kts
15-Jan-21 14:04 34.511825 -116.256335 12 7538ft 143kts
15-Jan-21 14:05 34.548944 -116.243581 12 7535ft 135kts
15-Jan-21 14:06 34.585336 -116.232086 12 7547ft 135kts
15-Jan-21 14:07 34.621799 -116.220570 12 7546ft 135kts
15-Jan-21 14:08 34.658268 -116.209047 12 7561ft 135kts
15-Jan-21 14:09 34.694788 -116.197536 12 7575ft 135kts
15-Jan-21 14:10 34.731326 -116.186007 12 7584ft 135kts
15-Jan-21 14:11 34.767741 -116.174497 12 7570ft 135kts
15-Jan-21 14:12 34.801659 -116.156522 41 7557ft 139kts
15-Jan-21 14:13 34.828444 -116.122466 42 7547ft 139kts
15-Jan-21 14:14 34.855013 -116.088114 42 7539ft 139kts
15-Jan-21 14:15 34.881665 -116.053619 42 7540ft 139kts
15-Jan-21 14:16 34.908340 -116.019016 42 7541ft 144kts
15-Jan-21 14:16 34.931746 -115.988882 42 7560ft 148kts
15-Jan-21 14:17 34.960100 -115.952380 42 7570ft 148kts
15-Jan-21 14:19 34.993246 -115.909718 42 7599ft 148kts
15-Jan-21 14:19 35.014770 -115.876726 42 7674ft 148kts
15-Jan-21 14:20 35.044209 -115.832196 43 7663ft 183kts
15-Jan-21 14:21 35.082148 -115.788602 43 7569ft 187kts
15-Jan-21 14:22 35.123036 -115.754609 42 7322ft 164kts
15-Jan-21 14:23 35.159718 -115.730164 32 7125ft 137kts
15-Jan-21 14:24 35.189778 -115.708450 31 7323ft 121kts
15-Jan-21 14:25 35.216898 -115.682331 30 7482ft 123kts
15-Jan-21 14:26 35.243675 -115.656378 31 7716ft 121kts
15-Jan-21 14:27 35.270186 -115.630889 32 7872ft 120kts
15-Jan-21 14:28 35.296397 -115.605573 32 8077ft 119kts
15-Jan-21 14:29 35.322659 -115.579870 33 8368ft 121kts
15-Jan-21 14:30 35.348817 -115.554556 32 8559ft 118kts
15-Jan-21 14:31 35.373823 -115.529767 32 8761ft 111kts
15-Jan-21 14:32 35.397545 -115.506600 32 8978ft 107kts
15-Jan-21 14:33 35.421357 -115.486388 22 8880ft 110kts
15-Jan-21 14:34 35.451334 -115.468380 23 8540ft 126kts
15-Jan-21 14:35 35.483857 -115.449506 22 8091ft 132kts
15-Jan-21 14:36 35.517441 -115.429696 22 7594ft 134kts
15-Jan-21 14:37 35.551448 -115.409716 22 7060ft 137kts
15-Jan-21 14:38 35.584701 -115.392038 357 7124ft 126kts
15-Jan-21 14:39 35.619381 -115.399203 352 7337ft 124kts
15-Jan-21 14:40 35.653636 -115.407877 351 7556ft 125kts
15-Jan-21 14:41 35.687794 -115.416130 352 7777ft 123kts
15-Jan-21 14:42 35.721477 -115.424484 355 7978ft 121kts
15-Jan-21 14:43 35.749931 -115.423155 8 7618ft 92kts
15-Jan-21 14:44 35.774384 -115.412830 22 7348ft 94kts
15-Jan-21 14:45 35.797921 -115.397902 23 7034ft 95kts
15-Jan-21 14:46 35.822009 -115.383094 27 6626ft 97kts
15-Jan-21 14:47 35.846465 -115.367317 25 6283ft 101kts
15-Jan-21 14:48 35.872677 -115.352980 21 5779ft 116kts
15-Jan-21 14:49 35.903558 -115.336436 24 5479ft 105kts
15-Jan-21 14:50 35.929633 -115.320578 23 5449ft 103kts
15-Jan-21 14:51 35.954541 -115.304783 23 5505ft 101kts
15-Jan-21 14:52 35.977208 -115.284188 32 5480ft 101kts
15-Jan-21 14:53 35.998918 -115.261857 33 5486ft 101kts
15-Jan-21 14:54 36.020275 -115.240001 32 5471ft 101kts
15-Jan-21 14:55 36.043624 -115.217051 32 4647ft 112kts
15-Jan-21 14:56 36.068655 -115.192939 27 3845ft 109kts
15-Jan-21 14:57 36.094179 -115.175676 19 3332ft 96kts
15-Jan-21 14:58 36.117284 -115.162468 26 3208ft 99kts
15-Jan-21 14:59 36.130658 -115.139801 131 3051ft 93kts
15-Jan-21 15:00 36.106661 -115.152569 205 2392ft 100kts
15-Jan-21 15:01 36.088546 -115.162790 203 2146ft 26kts
15-Jan-21 15:02 36.083626 -115.166868 224 2166ft 4kts
15-Jan-21 15:03 36.083620 -115.166875 224 2166ft 0kts
15-Jan-21 15:04 36.083620 -115.166875 224 2166ft 0kts
15-Jan-21 15:05 36.082836 -115.168614 270 2169ft 11kts
15-Jan-21 15:06 36.082169 -115.169846 231 2171ft 0kts

Navigation Log

Ident Type
Flight plan parsing failed, navigation log unavailable